Time;durP1;ratioP1;P1;durP2;ratioP2;P2;SDS_P1;SDS_P2;PMS_P1;PMS_P2;Temp;Humidity;BMP_temperature;BMP_pressure;BME280_temperature;BME280_humidity;BME280_pressure;Samples;Min_cycle;Max_cycle;Signal;HPM_P1;HPM_P2
2023/06/13 00:02:16;;;;;;;3.25;2.50;;;23.00;44.80;;;;;;5063950;28;20423;-70
2023/06/13 00:04:48;;;;;;;3.17;2.88;;;23.00;44.80;;;;;;5020725;28;20178;-69
2023/06/13 00:07:13;;;;;;;3.13;2.60;;;23.00;44.80;;;;;;5039806;28;20251;-69
2023/06/13 00:09:39;;;;;;;4.55;3.00;;;23.00;44.80;;;;;;5028864;28;20178;-69
2023/06/13 00:12:05;;;;;;;2.53;2.33;;;23.00;44.80;;;;;;5019633;28;20198;-69
2023/06/13 00:14:31;;;;;;;3.47;2.72;;;23.00;44.80;;;;;;5033193;28;20178;-69
2023/06/13 00:17:01;;;;;;;3.35;2.65;;;23.00;44.90;;;;;;5025518;28;20300;-69
2023/06/13 00:19:28;;;;;;;3.80;2.85;;;23.00;44.90;;;;;;5019918;28;20196;-69
2023/06/13 00:21:57;;;;;;;3.28;2.88;;;23.10;45.00;;;;;;5038455;28;20205;-69
2023/06/13 00:24:22;;;;;;;3.50;2.70;;;23.00;44.90;;;;;;5039678;28;20216;-69
2023/06/13 00:26:48;;;;;;;5.63;2.70;;;23.00;45.00;;;;;;5039222;28;20228;-69
2023/06/13 00:29:14;;;;;;;3.00;2.60;;;23.00;45.10;;;;;;5049684;28;20176;-69
2023/06/13 00:31:40;;;;;;;4.00;2.45;;;23.00;45.50;;;;;;5064535;28;20197;-69
2023/06/13 00:34:08;;;;;;;2.85;2.40;;;23.00;45.10;;;;;;5041176;28;20170;-69
2023/06/13 00:36:37;;;;;;;3.25;2.70;;;22.90;45.60;;;;;;5060433;28;20234;-69
2023/06/13 00:39:06;;;;;;;3.33;2.72;;;22.90;45.20;;;;;;5042110;28;20197;-68
2023/06/13 00:41:36;;;;;;;3.22;2.75;;;22.90;45.20;;;;;;5072661;28;20173;-69
2023/06/13 00:44:02;;;;;;;2.80;2.60;;;22.90;45.20;;;;;;5048697;28;20205;-70
2023/06/13 00:46:34;;;;;;;5.53;2.90;;;22.90;45.20;;;;;;5026548;28;20259;-70
2023/06/13 00:49:04;;;;;;;2.72;2.47;;;22.80;45.40;;;;;;5065462;28;20212;-69
2023/06/13 00:51:35;;;;;;;3.20;2.80;;;22.90;45.40;;;;;;5055907;28;20174;-70
2023/06/13 00:54:02;;;;;;;3.17;2.88;;;22.80;46.10;;;;;;5051956;28;20477;-69
2023/06/13 00:56:29;;;;;;;3.20;2.75;;;22.80;45.40;;;;;;5020768;28;20166;-70
2023/06/13 00:59:02;;;;;;;3.53;2.70;;;22.80;45.60;;;;;;5039064;28;20258;-69
2023/06/13 01:01:31;;;;;;;3.25;2.70;;;22.80;45.50;;;;;;5038604;28;20239;-69
2023/06/13 01:03:59;;;;;;;3.42;2.70;;;22.70;45.50;;;;;;5038532;28;20338;-69
2023/06/13 01:06:33;;;;;;;3.67;2.75;;;22.80;45.60;;;;;;5055524;28;20197;-70
2023/06/13 01:09:06;;;;;;;2.88;2.58;;;22.70;45.60;;;;;;5054581;28;20223;-70
2023/06/13 01:11:52;;;;;;;3.42;2.63;;;22.70;45.70;;;;;;5044747;28;20209;-69
2023/06/13 01:14:30;;;;;;;2.85;2.55;;;22.70;46.00;;;;;;5038455;28;20208;-70
2023/06/13 01:17:04;;;;;;;3.20;2.60;;;22.70;45.90;;;;;;5038332;28;20185;-69
2023/06/13 01:19:37;;;;;;;4.07;2.65;;;22.60;45.70;;;;;;5026822;28;20296;-70
2023/06/13 01:22:10;;;;;;;4.15;2.50;;;22.70;46.00;;;;;;5026084;28;20181;-69
2023/06/13 01:24:48;;;;;;;3.22;2.90;;;22.60;45.90;;;;;;5054929;28;20201;-69
2023/06/13 01:27:16;;;;;;;3.40;2.70;;;22.60;46.00;;;;;;5050907;28;20243;-69
2023/06/13 01:29:46;;;;;;;4.10;2.88;;;22.60;45.90;;;;;;5035050;28;20247;-69
2023/06/13 01:32:15;;;;;;;3.40;2.50;;;22.60;46.00;;;;;;5018574;28;20174;-69
2023/06/13 01:34:45;;;;;;;3.03;2.40;;;22.50;45.90;;;;;;5051165;28;20197;-69
2023/06/13 01:37:11;;;;;;;2.95;2.65;;;22.50;46.00;;;;;;5060740;28;20173;-69
2023/06/13 01:39:36;;;;;;;2.80;2.50;;;22.40;46.10;;;;;;5018340;28;20188;-69
2023/06/13 01:42:04;;;;;;;2.83;2.53;;;22.40;46.20;;;;;;5035842;28;20264;-69
2023/06/13 01:44:30;;;;;;;3.75;2.90;;;22.30;46.30;;;;;;5037592;28;20184;-69
2023/06/13 01:47:07;;;;;;;6.47;2.85;;;22.30;46.50;;;;;;5054563;28;20201;-69
2023/06/13 01:49:42;;;;;;;2.70;2.50;;;22.30;46.60;;;;;;5050393;28;20213;-70
2023/06/13 01:52:32;;;;;;;3.60;2.45;;;22.20;46.70;;;;;;5040444;28;20180;-70
2023/06/13 01:55:20;;;;;;;3.67;2.53;;;22.20;47.20;;;;;;5037885;28;20172;-69
2023/06/13 01:57:56;;;;;;;5.15;2.63;;;22.10;47.00;;;;;;5034683;28;20178;-69
2023/06/13 02:00:24;;;;;;;3.17;2.88;;;22.10;46.90;;;;;;5032374;28;20235;-69
2023/06/13 02:02:53;;;;;;;3.05;2.70;;;22.00;46.70;;;;;;5040055;28;20169;-69
2023/06/13 02:05:19;;;;;;;3.28;2.75;;;21.90;46.90;;;;;;5070881;28;20238;-69
2023/06/13 02:07:45;;;;;;;4.22;2.75;;;21.80;46.90;;;;;;5060027;28;20284;-69
2023/06/13 02:10:13;;;;;;;3.00;2.67;;;21.80;47.10;;;;;;5039275;28;20201;-69
2023/06/13 02:12:39;;;;;;;2.90;2.50;;;21.80;47.30;;;;;;5071260;28;20169;-71
2023/06/13 02:15:08;;;;;;;3.60;3.00;;;21.70;47.20;;;;;;5063524;28;20169;-69
2023/06/13 02:17:35;;;;;;;3.60;2.65;;;21.70;47.30;;;;;;5034495;28;20305;-69
2023/06/13 02:20:01;;;;;;;3.25;2.80;;;21.60;47.40;;;;;;5071217;28;20184;-69
2023/06/13 02:22:27;;;;;;;3.33;2.80;;;21.60;47.50;;;;;;5070598;28;20201;-68
2023/06/13 02:24:55;;;;;;;3.55;3.05;;;21.50;47.60;;;;;;5077381;28;20181;-69
2023/06/13 02:27:25;;;;;;;3.00;2.63;;;21.40;47.60;;;;;;5043650;28;20213;-69
2023/06/13 02:29:54;;;;;;;3.40;2.90;;;21.40;47.70;;;;;;5052242;28;20177;-69
2023/06/13 02:32:23;;;;;;;4.35;2.70;;;21.30;48.30;;;;;;5077161;28;20203;-69
2023/06/13 02:34:51;;;;;;;3.85;2.50;;;21.30;47.90;;;;;;5043871;28;20169;-69
2023/06/13 02:37:18;;;;;;;4.13;2.55;;;21.20;48.50;;;;;;5032201;28;20201;-69
2023/06/13 02:39:43;;;;;;;4.20;2.88;;;21.20;48.10;;;;;;5025076;28;20261;-69
2023/06/13 02:42:11;;;;;;;3.70;2.50;;;21.10;48.10;;;;;;5044051;28;20220;-69
2023/06/13 02:44:37;;;;;;;3.33;2.70;;;21.10;48.20;;;;;;5056611;28;20181;-69
2023/06/13 02:47:03;;;;;;;4.50;3.33;;;21.00;48.20;;;;;;5071298;28;20227;-69
2023/06/13 02:49:28;;;;;;;3.42;2.85;;;21.00;48.40;;;;;;5043828;28;20191;-69
2023/06/13 02:51:56;;;;;;;4.38;2.80;;;20.90;48.50;;;;;;5043973;28;20169;-68
2023/06/13 02:54:24;;;;;;;3.50;2.47;;;20.80;48.50;;;;;;5060117;28;20261;-69
2023/06/13 02:56:52;;;;;;;3.53;2.47;;;20.80;48.80;;;;;;5043988;28;20173;-69
2023/06/13 02:59:20;;;;;;;3.08;2.35;;;20.70;48.60;;;;;;5043456;28;20204;-69
2023/06/13 03:01:46;;;;;;;2.80;2.53;;;20.70;49.00;;;;;;5043373;28;20192;-69
2023/06/13 03:04:11;;;;;;;3.92;2.90;;;20.60;49.00;;;;;;5043929;28;20169;-69
2023/06/13 03:06:40;;;;;;;3.72;3.00;;;20.50;49.00;;;;;;5043553;28;20197;-69
2023/06/13 03:09:07;;;;;;;5.63;2.70;;;20.50;49.40;;;;;;5060845;28;20185;-69
2023/06/13 03:11:35;;;;;;;3.45;3.00;;;20.40;49.20;;;;;;5043618;28;20183;-70
2023/06/13 03:14:03;;;;;;;4.85;3.10;;;20.40;49.50;;;;;;5045877;28;20201;-68
2023/06/13 03:16:31;;;;;;;3.83;3.08;;;20.30;49.40;;;;;;5060083;28;20173;-69
2023/06/13 03:18:56;;;;;;;3.28;2.63;;;20.30;49.80;;;;;;5044012;28;20212;-68
2023/06/13 03:21:24;;;;;;;5.65;4.30;;;20.30;49.70;;;;;;5059909;28;20165;-69
2023/06/13 03:23:50;;;;;;;5.00;4.20;;;20.20;49.90;;;;;;5043334;28;20208;-68
2023/06/13 03:26:16;;;;;;;6.18;4.43;;;20.20;50.00;;;;;;5059089;28;20234;-68
2023/06/13 03:28:45;;;;;;;4.30;3.67;;;20.10;50.00;;;;;;5050357;28;20231;-68
2023/06/13 03:31:11;;;;;;;7.80;6.30;;;20.10;50.20;;;;;;5058222;28;20238;-70
2023/06/13 03:33:42;;;;;;;9.45;6.35;;;20.10;50.20;;;;;;5035525;28;20181;-68
2023/06/13 03:36:07;;;;;;;8.40;7.50;;;20.10;50.30;;;;;;5051016;28;20260;-68
2023/06/13 03:38:33;;;;;;;5.70;5.10;;;20.00;50.30;;;;;;5064462;28;20205;-68
2023/06/13 03:40:59;;;;;;;5.28;4.10;;;20.00;50.40;;;;;;5020560;28;20174;-67
2023/06/13 03:43:27;;;;;;;5.53;4.32;;;20.00;50.60;;;;;;5031279;28;20181;-68
2023/06/13 03:45:53;;;;;;;4.50;3.80;;;20.00;50.80;;;;;;5030327;28;20178;-68
2023/06/13 03:48:21;;;;;;;7.13;3.72;;;19.90;50.70;;;;;;5040125;28;20208;-68
2023/06/13 03:50:49;;;;;;;3.88;3.45;;;19.90;50.80;;;;;;5039467;28;20209;-68
2023/06/13 03:53:16;;;;;;;4.55;4.15;;;19.90;51.00;;;;;;5040092;28;20180;-68
2023/06/13 03:55:45;;;;;;;7.15;5.55;;;19.90;51.10;;;;;;5039397;28;20193;-68
2023/06/13 03:58:11;;;;;;;4.93;4.03;;;19.80;51.30;;;;;;5039756;28;20176;-68
2023/06/13 04:00:39;;;;;;;4.85;3.72;;;19.80;51.90;;;;;;5040252;28;20259;-68
2023/06/13 04:03:11;;;;;;;4.15;3.60;;;19.80;51.40;;;;;;5036563;28;20228;-68
2023/06/13 04:05:37;;;;;;;5.15;3.60;;;19.80;51.60;;;;;;5041792;28;20189;-68
2023/06/13 04:08:06;;;;;;;3.78;3.38;;;19.80;51.80;;;;;;5073071;28;20212;-68
2023/06/13 04:10:31;;;;;;;3.85;3.45;;;19.80;52.00;;;;;;5070760;28;20255;-69
2023/06/13 04:13:02;;;;;;;3.97;3.47;;;19.70;51.80;;;;;;5069699;28;20221;-67
2023/06/13 04:15:28;;;;;;;3.53;2.88;;;19.70;51.90;;;;;;5019846;28;20194;-67
2023/06/13 04:17:55;;;;;;;10.77;8.20;;;19.70;52.00;;;;;;5027809;28;20169;-69
2023/06/13 04:20:24;;;;;;;9.45;8.05;;;19.70;51.90;;;;;;5036279;28;20327;-68
2023/06/13 04:22:52;;;;;;;6.25;5.50;;;19.70;52.10;;;;;;5019929;28;20165;-68
2023/06/13 04:25:17;;;;;;;5.35;4.28;;;19.70;52.20;;;;;;5032046;28;20209;-68
2023/06/13 04:27:44;;;;;;;4.20;3.75;;;19.70;52.40;;;;;;5039428;28;20471;-68
2023/06/13 04:30:11;;;;;;;5.07;3.50;;;19.70;52.40;;;;;;5039277;28;20181;-68
2023/06/13 04:32:37;;;;;;;4.88;3.53;;;19.70;52.40;;;;;;5039261;28;20170;-69
2023/06/13 04:35:04;;;;;;;4.07;3.45;;;19.80;52.60;;;;;;5054312;28;20180;-69
2023/06/13 04:37:32;;;;;;;3.47;3.17;;;19.80;52.70;;;;;;5019229;28;20213;-69
2023/06/13 04:39:58;;;;;;;3.63;2.97;;;19.80;52.60;;;;;;5028042;28;20269;-69
2023/06/13 04:42:26;;;;;;;3.83;3.10;;;19.80;52.70;;;;;;5019001;28;20300;-68
2023/06/13 04:44:53;;;;;;;3.47;3.13;;;19.80;52.80;;;;;;5038074;28;20238;-69
2023/06/13 04:47:20;;;;;;;3.83;3.00;;;19.80;52.80;;;;;;5026384;28;20234;-69
2023/06/13 04:49:46;;;;;;;3.50;2.92;;;19.80;52.90;;;;;;5018735;28;20289;-69
2023/06/13 04:52:15;;;;;;;5.63;3.33;;;19.90;53.10;;;;;;5019061;28;20189;-69
2023/06/13 04:54:44;;;;;;;3.15;2.85;;;19.90;53.20;;;;;;5038481;28;20170;-68
2023/06/13 04:57:13;;;;;;;4.03;2.75;;;19.90;53.40;;;;;;5054863;28;20205;-69
2023/06/13 04:59:41;;;;;;;3.67;2.95;;;20.00;53.50;;;;;;5055176;28;20177;-69
2023/06/13 05:02:08;;;;;;;4.32;3.10;;;20.00;53.50;;;;;;5041174;28;20205;-69
2023/06/13 05:04:36;;;;;;;3.30;2.80;;;20.00;53.50;;;;;;5035204;28;20163;-69
2023/06/13 05:07:04;;;;;;;3.35;3.05;;;20.00;53.50;;;;;;5035426;28;20202;-68
2023/06/13 05:09:32;;;;;;;4.75;3.35;;;20.00;53.70;;;;;;5035237;28;20178;-69
2023/06/13 05:11:57;;;;;;;4.03;3.17;;;20.10;53.80;;;;;;5049827;28;20173;-67
2023/06/13 05:14:23;;;;;;;3.50;3.20;;;20.10;53.80;;;;;;5038731;28;20173;-69
2023/06/13 05:16:55;;;;;;;4.75;3.08;;;20.20;53.90;;;;;;5043912;28;20184;-68
2023/06/13 05:19:21;;;;;;;3.58;2.92;;;20.20;54.20;;;;;;5018016;28;20170;-69
2023/06/13 05:21:46;;;;;;;6.63;3.00;;;20.30;54.20;;;;;;5018435;28;20184;-69
2023/06/13 05:24:17;;;;;;;3.78;2.90;;;20.30;54.20;;;;;;5026286;28;20227;-69
2023/06/13 05:26:45;;;;;;;3.70;3.20;;;20.40;54.30;;;;;;5037736;28;20200;-68
2023/06/13 05:29:10;;;;;;;4.93;3.20;;;20.50;54.40;;;;;;5018065;28;20197;-69
2023/06/13 05:31:36;;;;;;;3.78;3.15;;;20.50;54.30;;;;;;5033284;28;20173;-69
2023/06/13 05:34:02;;;;;;;3.50;2.90;;;20.60;54.40;;;;;;5070648;28;20197;-69
2023/06/13 05:36:27;;;;;;;4.32;2.72;;;20.70;54.40;;;;;;5054443;28;20181;-69
2023/06/13 05:38:57;;;;;;;3.05;2.67;;;20.70;54.30;;;;;;5034248;28;20198;-69
2023/06/13 05:41:26;;;;;;;4.07;2.70;;;20.80;54.30;;;;;;5034669;28;20174;-68
2023/06/13 05:43:51;;;;;;;3.17;2.88;;;20.90;54.40;;;;;;5051987;28;20200;-68
2023/06/13 05:46:19;;;;;;;3.88;2.70;;;20.90;54.40;;;;;;5037630;28;20165;-69
2023/06/13 05:48:45;;;;;;;3.55;2.85;;;21.00;54.40;;;;;;5037167;28;20169;-69
2023/06/13 05:51:11;;;;;;;4.25;2.65;;;21.00;54.40;;;;;;5037093;28;20185;-68
2023/06/13 05:53:38;;;;;;;4.40;3.00;;;21.10;54.60;;;;;;5037379;28;20256;-68
2023/06/13 05:56:06;;;;;;;3.50;2.85;;;21.10;54.40;;;;;;5037886;28;20165;-69
2023/06/13 05:58:34;;;;;;;3.78;2.70;;;21.20;54.40;;;;;;5026203;28;20188;-69
2023/06/13 06:01:04;;;;;;;3.20;2.90;;;21.30;54.50;;;;;;5022870;28;20225;-69
2023/06/13 06:03:33;;;;;;;4.55;2.95;;;21.30;54.40;;;;;;5037561;28;20256;-69
2023/06/13 06:05:59;;;;;;;3.20;2.80;;;21.30;54.60;;;;;;5041312;28;20194;-69
2023/06/13 06:08:27;;;;;;;5.20;3.22;;;21.40;54.50;;;;;;5019517;28;20256;-69
2023/06/13 06:10:53;;;;;;;3.33;2.85;;;21.40;54.50;;;;;;5037670;28;20173;-69
2023/06/13 06:13:21;;;;;;;3.47;2.83;;;21.50;54.40;;;;;;5037020;28;20192;-68
2023/06/13 06:15:46;;;;;;;4.35;2.88;;;21.50;54.30;;;;;;5053849;28;20210;-69
2023/06/13 06:18:14;;;;;;;3.70;3.03;;;21.60;54.30;;;;;;5024183;28;20170;-70
2023/06/13 06:20:42;;;;;;;4.35;2.72;;;21.60;54.20;;;;;;5017778;28;20288;-70
2023/06/13 06:23:08;;;;;;;5.32;2.90;;;21.70;54.20;;;;;;5017709;28;20232;-69
2023/06/13 06:25:34;;;;;;;3.10;2.80;;;21.70;54.10;;;;;;5017490;28;20206;-68
2023/06/13 06:28:01;;;;;;;3.88;3.08;;;21.80;54.10;;;;;;5017539;28;20194;-68
2023/06/13 06:30:29;;;;;;;3.85;2.80;;;21.80;54.30;;;;;;5031569;28;20194;-70
2023/06/13 06:32:57;;;;;;;4.55;2.80;;;21.90;54.40;;;;;;5024549;28;20164;-69
2023/06/13 06:35:22;;;;;;;3.55;2.75;;;21.90;54.10;;;;;;5070727;28;20180;-69
2023/06/13 06:37:50;;;;;;;3.97;2.97;;;22.00;53.90;;;;;;5070223;28;20177;-69
2023/06/13 06:40:19;;;;;;;3.80;3.03;;;22.00;54.00;;;;;;5069749;28;20180;-68
2023/06/13 06:42:47;;;;;;;2.88;2.58;;;22.10;53.90;;;;;;5053928;28;20169;-68
2023/06/13 06:45:12;;;;;;;3.25;2.95;;;22.20;53.80;;;;;;5054757;28;20255;-68
2023/06/13 06:47:39;;;;;;;3.17;2.83;;;22.20;54.30;;;;;;5031851;28;20473;-69
2023/06/13 06:50:05;;;;;;;4.40;3.15;;;22.30;53.80;;;;;;5032734;28;20209;-69
2023/06/13 06:52:33;;;;;;;3.10;2.80;;;22.30;53.70;;;;;;5049520;28;20212;-69
2023/06/13 06:54:59;;;;;;;4.97;3.28;;;22.40;53.70;;;;;;5016954;28;20186;-68
2023/06/13 06:57:26;;;;;;;4.05;2.92;;;22.40;53.50;;;;;;5035030;28;20197;-69
2023/06/13 06:59:52;;;;;;;3.78;2.50;;;22.50;53.30;;;;;;5036623;28;20204;-69
2023/06/13 07:02:17;;;;;;;4.15;2.83;;;22.50;53.30;;;;;;5036827;28;20197;-69
2023/06/13 07:04:43;;;;;;;3.10;2.80;;;22.60;53.30;;;;;;5047564;28;20178;-69
2023/06/13 07:07:11;;;;;;;3.60;2.78;;;22.60;53.20;;;;;;5060219;28;20221;-69
2023/06/13 07:09:37;;;;;;;4.88;2.90;;;22.60;53.10;;;;;;5018792;28;20217;-69
2023/06/13 07:12:05;;;;;;;3.35;2.85;;;22.70;53.10;;;;;;5051593;28;20272;-69
2023/06/13 07:14:31;;;;;;;3.20;2.45;;;22.70;53.00;;;;;;5028971;28;20169;-69
2023/06/13 07:16:56;;;;;;;4.65;2.83;;;22.80;52.90;;;;;;5037945;28;20174;-69
2023/06/13 07:19:24;;;;;;;4.35;3.00;;;22.90;52.90;;;;;;5037236;28;20202;-69
2023/06/13 07:21:50;;;;;;;3.15;2.55;;;22.90;52.80;;;;;;5045686;28;20214;-69
2023/06/13 07:24:15;;;;;;;4.32;2.80;;;22.90;52.90;;;;;;5070915;28;20182;-70
2023/06/13 07:26:43;;;;;;;2.60;2.40;;;23.00;52.80;;;;;;5020901;28;20240;-68
2023/06/13 07:29:09;;;;;;;3.97;2.90;;;23.00;52.90;;;;;;5029366;28;20197;-70
2023/06/13 07:31:36;;;;;;;3.33;2.60;;;23.10;53.00;;;;;;5037207;28;20170;-68
2023/06/13 07:34:04;;;;;;;3.53;2.78;;;23.10;52.80;;;;;;5020349;28;20281;-69
2023/06/13 07:36:30;;;;;;;2.92;2.47;;;23.20;52.60;;;;;;5037261;28;20165;-69
2023/06/13 07:38:57;;;;;;;3.67;2.75;;;23.20;52.50;;;;;;5052695;28;20193;-69
2023/06/13 07:41:23;;;;;;;6.57;2.67;;;23.30;52.70;;;;;;5056958;28;20170;-70
2023/06/13 07:43:51;;;;;;;2.97;2.63;;;23.30;52.50;;;;;;5040289;28;20293;-68
2023/06/13 07:46:17;;;;;;;3.28;2.83;;;23.40;52.50;;;;;;5054042;28;20184;-69
2023/06/13 07:48:42;;;;;;;3.13;2.80;;;23.40;52.50;;;;;;5039976;28;20209;-68
2023/06/13 07:51:09;;;;;;;3.90;2.88;;;23.50;52.40;;;;;;5054774;28;20181;-69
2023/06/13 07:53:34;;;;;;;3.60;2.78;;;23.50;52.40;;;;;;5068993;28;20280;-69
2023/06/13 07:56:00;;;;;;;3.90;3.28;;;23.60;52.40;;;;;;5056869;28;20256;-68
2023/06/13 07:58:28;;;;;;;4.43;3.78;;;23.70;52.30;;;;;;5052873;28;20174;-70
2023/06/13 08:00:56;;;;;;;5.55;3.88;;;23.70;52.20;;;;;;5043201;28;20224;-71
2023/06/13 08:03:24;;;;;;;3.65;3.00;;;23.80;52.20;;;;;;5039447;28;20223;-70
2023/06/13 08:05:50;;;;;;;4.68;3.83;;;23.80;52.20;;;;;;5040014;28;20192;-70
2023/06/13 08:08:15;;;;;;;3.42;3.13;;;23.90;52.80;;;;;;5027561;28;20197;-69
2023/06/13 08:10:41;;;;;;;3.85;2.97;;;23.90;52.20;;;;;;5039446;28;20236;-69
2023/06/13 08:13:06;;;;;;;3.63;3.00;;;23.90;52.10;;;;;;5039631;28;20197;-69
2023/06/13 08:15:32;;;;;;;2.72;2.42;;;24.00;52.20;;;;;;5024274;28;20260;-69
2023/06/13 08:18:00;;;;;;;3.03;2.58;;;24.00;52.20;;;;;;5039552;28;20400;-69
2023/06/13 08:20:25;;;;;;;3.22;2.55;;;24.10;52.20;;;;;;5048384;28;20227;-70
2023/06/13 08:22:51;;;;;;;2.67;2.30;;;24.20;51.90;;;;;;5072090;28;20181;-70
2023/06/13 08:25:19;;;;;;;3.35;2.63;;;24.20;51.80;;;;;;5072886;28;20213;-69
2023/06/13 08:27:44;;;;;;;4.85;2.78;;;24.30;51.80;;;;;;5062794;28;20193;-70
2023/06/13 08:30:10;;;;;;;3.65;2.65;;;24.30;51.80;;;;;;5039185;28;20197;-70
2023/06/13 08:32:36;;;;;;;4.05;2.70;;;24.40;51.70;;;;;;5039003;28;20173;-70
2023/06/13 08:35:03;;;;;;;3.38;2.53;;;24.40;51.40;;;;;;5054169;28;20242;-70
2023/06/13 08:37:28;;;;;;;2.75;2.33;;;24.50;51.50;;;;;;5039274;28;20189;-68
2023/06/13 08:39:54;;;;;;;2.80;2.50;;;24.50;51.20;;;;;;5045013;28;20178;-68
2023/06/13 08:42:22;;;;;;;2.70;2.50;;;24.60;51.30;;;;;;5029623;28;20231;-69
2023/06/13 08:44:51;;;;;;;3.30;2.65;;;24.70;51.30;;;;;;5055945;28;20177;-69
2023/06/13 08:47:19;;;;;;;3.58;2.58;;;24.70;51.10;;;;;;5056347;28;20188;-70
2023/06/13 08:49:49;;;;;;;3.05;2.40;;;24.70;50.60;;;;;;5054971;28;20193;-69
2023/06/13 08:52:17;;;;;;;3.72;2.50;;;24.80;50.70;;;;;;5070406;28;20177;-69
2023/06/13 08:54:43;;;;;;;2.90;2.60;;;24.90;50.80;;;;;;5018947;28;20178;-69
2023/06/13 08:57:15;;;;;;;3.03;2.65;;;24.90;50.50;;;;;;5045031;28;20262;-69
2023/06/13 08:59:44;;;;;;;4.50;2.70;;;24.90;50.40;;;;;;5067573;28;20193;-69
2023/06/13 09:02:14;;;;;;;2.42;2.17;;;24.90;50.50;;;;;;5055345;28;20208;-69
2023/06/13 09:04:43;;;;;;;3.90;2.20;;;25.00;50.70;;;;;;5055011;28;20183;-70
2023/06/13 09:07:10;;;;;;;3.45;2.70;;;25.10;50.70;;;;;;5038312;28;20419;-69
2023/06/13 09:09:37;;;;;;;3.00;2.30;;;25.10;50.10;;;;;;5038471;28;20197;-70
2023/06/13 09:12:09;;;;;;;3.30;2.80;;;25.20;49.70;;;;;;5034558;28;20197;-69
2023/06/13 09:14:37;;;;;;;3.38;2.35;;;25.30;49.50;;;;;;5038162;28;20181;-69
2023/06/13 09:17:03;;;;;;;2.70;2.30;;;25.40;49.70;;;;;;5018663;28;20201;-71
2023/06/13 09:19:31;;;;;;;3.83;2.70;;;25.40;49.40;;;;;;5037945;28;20181;-69
2023/06/13 09:21:57;;;;;;;3.33;2.65;;;25.50;49.20;;;;;;5048796;28;20218;-70
2023/06/13 09:24:27;;;;;;;4.05;3.05;;;25.50;49.30;;;;;;5018851;28;20178;-71
2023/06/13 09:26:53;;;;;;;3.38;2.78;;;25.60;48.80;;;;;;5038967;28;20292;-69
2023/06/13 09:29:18;;;;;;;3.10;2.60;;;25.70;48.80;;;;;;5071766;28;20217;-69
2023/06/13 09:31:44;;;;;;;2.53;2.33;;;25.80;48.80;;;;;;5023644;28;20170;-70
2023/06/13 09:34:16;;;;;;;3.13;2.38;;;25.80;49.00;;;;;;5017893;28;20179;-68
2023/06/13 09:36:43;;;;;;;4.40;2.17;;;25.90;49.00;;;;;;5038062;28;20248;-70
2023/06/13 09:39:08;;;;;;;3.00;2.47;;;26.00;49.00;;;;;;5062333;28;20238;-70
2023/06/13 09:41:35;;;;;;;2.70;2.50;;;26.00;48.90;;;;;;5071251;28;20233;-71
2023/06/13 09:44:05;;;;;;;6.75;2.60;;;26.10;48.90;;;;;;5054319;28;20177;-68
2023/06/13 09:46:37;;;;;;;2.70;2.30;;;26.20;48.30;;;;;;5037590;28;20204;-69
2023/06/13 09:49:06;;;;;;;2.92;2.20;;;26.20;48.70;;;;;;5050359;28;20283;-70
2023/06/13 09:51:32;;;;;;;2.78;2.33;;;26.30;49.10;;;;;;5034917;28;20174;-71
2023/06/13 09:54:03;;;;;;;5.10;2.20;;;26.40;48.30;;;;;;5045862;28;20220;-68
2023/06/13 09:56:31;;;;;;;2.85;2.35;;;26.40;48.30;;;;;;5054232;28;20174;-71
2023/06/13 09:59:00;;;;;;;4.13;2.50;;;26.50;48.40;;;;;;5018123;28;20198;-69
2023/06/13 10:01:29;;;;;;;3.85;2.45;;;26.50;48.20;;;;;;5029739;28;20262;-69
2023/06/13 10:03:55;;;;;;;3.55;2.60;;;26.60;48.20;;;;;;5037662;28;20249;-69
2023/06/13 10:06:22;;;;;;;4.43;3.03;;;26.70;48.30;;;;;;5017798;28;20189;-69
2023/06/13 10:08:48;;;;;;;4.05;2.63;;;26.80;47.90;;;;;;5028482;28;20241;-69
2023/06/13 10:11:18;;;;;;;3.70;2.40;;;26.90;47.60;;;;;;5035111;28;20169;-68
2023/06/13 10:14:15;;;;;;;3.72;2.83;;;27.00;47.50;;;;;;5017538;28;20190;-69
2023/06/13 10:16:44;;;;;;;3.15;2.47;;;27.10;46.50;;;;;;5034757;28;20192;-68
2023/06/13 10:19:17;;;;;;;3.10;2.70;;;27.10;47.10;;;;;;5036894;28;20224;-68
2023/06/13 10:21:46;;;;;;;3.33;2.20;;;27.20;47.10;;;;;;5037024;28;20222;-68
2023/06/13 10:24:16;;;;;;;3.63;2.25;;;27.30;47.30;;;;;;5037049;28;20208;-69
2023/06/13 10:26:45;;;;;;;3.17;2.50;;;27.40;46.90;;;;;;5037318;28;20169;-69
2023/06/13 10:29:41;;;;;;;3.67;2.50;;;27.40;46.70;;;;;;5053456;28;20169;-69
2023/06/13 10:32:25;;;;;;;2.97;2.63;;;27.50;45.90;;;;;;5053769;28;20260;-70
2023/06/13 10:35:12;;;;;;;2.63;2.30;;;27.60;46.10;;;;;;5048170;28;20198;-69
2023/06/13 10:38:02;;;;;;;4.05;2.60;;;27.70;46.60;;;;;;5035543;28;20197;-69
2023/06/13 10:41:08;;;;;;;3.75;2.65;;;27.80;44.90;;;;;;5037114;28;20288;-70
2023/06/13 10:43:48;;;;;;;2.95;2.40;;;28.10;46.60;;;;;;5025057;28;20193;-69
2023/06/13 10:46:17;;;;;;;4.75;2.40;;;28.40;46.40;;;;;;5046093;28;20181;-69
2023/06/13 10:48:52;;;;;;;5.25;2.50;;;28.60;47.00;;;;;;5074076;28;20204;-69
2023/06/13 10:51:20;;;;;;;2.85;2.60;;;28.80;45.90;;;;;;5057584;28;20280;-69
2023/06/13 10:53:48;;;;;;;2.80;2.60;;;29.00;46.70;;;;;;5057693;28;20185;-69
2023/06/13 10:56:16;;;;;;;4.20;2.75;;;29.20;46.50;;;;;;5040827;28;20276;-70
2023/06/13 10:58:47;;;;;;;3.03;2.83;;;29.40;46.00;;;;;;5042440;28;20239;-69
2023/06/13 11:01:25;;;;;;;3.22;2.90;;;29.50;45.80;;;;;;5052484;28;20204;-68
2023/06/13 11:03:50;;;;;;;3.10;2.80;;;29.70;45.00;;;;;;5051019;28;20173;-69
2023/06/13 11:06:16;;;;;;;2.78;2.47;;;29.70;45.50;;;;;;5040367;28;20201;-69
2023/06/13 11:08:43;;;;;;;3.50;2.60;;;29.90;45.30;;;;;;5056933;28;20242;-70
2023/06/13 11:11:09;;;;;;;3.75;2.92;;;30.00;45.10;;;;;;5041116;28;20193;-70
2023/06/13 11:13:38;;;;;;;3.10;2.80;;;30.10;44.00;;;;;;5026234;28;20173;-70
2023/06/13 11:16:20;;;;;;;3.17;2.50;;;30.20;44.60;;;;;;5040502;28;20207;-70
2023/06/13 11:18:51;;;;;;;2.97;2.30;;;30.40;43.00;;;;;;5040913;28;20183;-69
2023/06/13 11:21:19;;;;;;;2.90;2.60;;;30.40;43.50;;;;;;5040049;28;20334;-71
2023/06/13 11:24:04;;;;;;;3.75;2.50;;;30.50;43.90;;;;;;5040089;28;20521;-71
2023/06/13 11:26:30;;;;;;;3.00;2.63;;;30.60;39.60;;;;;;5040466;28;20196;-70
2023/06/13 11:28:56;;;;;;;3.13;2.33;;;30.60;42.90;;;;;;5024174;28;20177;-70
2023/06/13 11:31:24;;;;;;;2.95;2.60;;;30.70;43.10;;;;;;5030628;28;20243;-70
2023/06/13 11:33:51;;;;;;;2.90;2.70;;;30.70;42.70;;;;;;5059124;28;20169;-71
2023/06/13 11:36:18;;;;;;;3.78;2.63;;;30.80;43.00;;;;;;5038148;28;20275;-70
2023/06/13 11:38:47;;;;;;;3.80;2.80;;;30.90;42.10;;;;;;5039820;28;20195;-70
2023/06/13 11:41:12;;;;;;;5.82;2.70;;;31.10;41.70;;;;;;5040278;28;20188;-71
2023/06/13 11:43:38;;;;;;;3.55;2.45;;;31.20;41.90;;;;;;5053426;28;20181;-70
2023/06/13 11:46:05;;;;;;;3.30;2.50;;;31.30;41.70;;;;;;5028231;28;20235;-70
2023/06/13 11:48:33;;;;;;;2.92;2.70;;;31.40;41.80;;;;;;5049702;28;20208;-70
2023/06/13 11:51:08;;;;;;;3.95;2.33;;;31.50;42.40;;;;;;5038894;28;20223;-69
2023/06/13 11:53:46;;;;;;;2.92;2.63;;;31.70;40.70;;;;;;5053056;28;20193;-70
2023/06/13 11:56:15;;;;;;;2.55;2.20;;;31.80;40.30;;;;;;5050197;28;20181;-70
2023/06/13 11:58:44;;;;;;;2.40;2.20;;;31.80;41.10;;;;;;5022192;28;20201;-69
2023/06/13 12:01:13;;;;;;;3.83;2.58;;;32.00;41.00;;;;;;5026350;28;20181;-69
2023/06/13 12:03:42;;;;;;;4.22;2.60;;;32.10;40.80;;;;;;5027765;28;20291;-70
2023/06/13 12:06:12;;;;;;;3.17;2.40;;;32.20;40.70;;;;;;5040044;28;20176;-69
2023/06/13 12:08:44;;;;;;;2.78;2.40;;;32.30;40.60;;;;;;5049875;28;20220;-70
2023/06/13 12:11:16;;;;;;;3.70;2.45;;;32.30;39.80;;;;;;5072811;28;20168;-70
2023/06/13 12:13:55;;;;;;;2.92;2.35;;;32.30;39.50;;;;;;5056935;28;20192;-71
2023/06/13 12:16:25;;;;;;;3.58;2.58;;;32.40;37.80;;;;;;5024215;28;20169;-70
2023/06/13 12:18:53;;;;;;;3.42;2.40;;;32.40;39.50;;;;;;5036696;28;20197;-70
2023/06/13 12:21:20;;;;;;;2.60;2.40;;;32.50;39.40;;;;;;5039438;28;20180;-69
2023/06/13 12:23:50;;;;;;;3.33;2.55;;;32.50;39.10;;;;;;5040102;28;20192;-70
2023/06/13 12:26:17;;;;;;;3.58;2.65;;;32.50;39.00;;;;;;5072971;28;20172;-70
2023/06/13 12:28:44;;;;;;;4.13;2.50;;;32.50;39.00;;;;;;5062215;28;20204;-69
2023/06/13 12:31:12;;;;;;;2.67;2.35;;;32.60;39.00;;;;;;5039045;28;20206;-70
2023/06/13 12:33:39;;;;;;;2.60;2.40;;;32.60;39.00;;;;;;5038250;28;20188;-70
2023/06/13 12:36:05;;;;;;;4.78;2.67;;;32.70;39.20;;;;;;5047641;28;20169;-70
2023/06/13 12:38:34;;;;;;;3.83;2.50;;;32.80;39.10;;;;;;5035905;28;20173;-71
2023/06/13 12:41:00;;;;;;;2.70;2.50;;;32.90;38.60;;;;;;5031732;28;20240;-69
2023/06/13 12:43:27;;;;;;;2.50;2.30;;;33.00;38.70;;;;;;5038572;28;20235;-71
2023/06/13 12:45:56;;;;;;;3.05;2.75;;;33.00;38.50;;;;;;5035753;28;20180;-69
2023/06/13 12:48:22;;;;;;;2.67;2.40;;;33.10;38.40;;;;;;5049346;28;20217;-69
2023/06/13 12:50:48;;;;;;;2.85;2.60;;;33.10;38.40;;;;;;5038716;28;20346;-70
2023/06/13 12:53:22;;;;;;;4.53;2.60;;;33.10;38.20;;;;;;5019302;28;20241;-70
2023/06/13 12:55:51;;;;;;;2.60;2.40;;;33.10;37.60;;;;;;5027497;28;20330;-70